sensor_id;sensor_type;location;lat;lon;timestamp;temperature;humidity
16893;DHT22;8563;52.242;9.098;2023-09-08T00:00:24;21.00;95.40
16893;DHT22;8563;52.242;9.098;2023-09-08T00:02:56;21.00;95.20
16893;DHT22;8563;52.242;9.098;2023-09-08T00:05:29;21.00;95.30
16893;DHT22;8563;52.242;9.098;2023-09-08T00:08:01;21.00;95.40
16893;DHT22;8563;52.242;9.098;2023-09-08T00:10:35;21.00;95.60
16893;DHT22;8563;52.242;9.098;2023-09-08T00:13:07;20.90;95.50
16893;DHT22;8563;52.242;9.098;2023-09-08T00:15:39;20.80;95.70
16893;DHT22;8563;52.242;9.098;2023-09-08T00:18:11;20.80;95.90
16893;DHT22;8563;52.242;9.098;2023-09-08T00:20:43;20.70;96.00
16893;DHT22;8563;52.242;9.098;2023-09-08T00:23:15;20.70;96.30
16893;DHT22;8563;52.242;9.098;2023-09-08T00:25:50;20.70;96.40
16893;DHT22;8563;52.242;9.098;2023-09-08T00:28:22;20.60;96.40
16893;DHT22;8563;52.242;9.098;2023-09-08T00:30:54;20.60;96.60
16893;DHT22;8563;52.242;9.098;2023-09-08T00:33:27;20.50;96.70
16893;DHT22;8563;52.242;9.098;2023-09-08T00:35:59;20.50;96.80
16893;DHT22;8563;52.242;9.098;2023-09-08T00:38:31;20.50;96.80
16893;DHT22;8563;52.242;9.098;2023-09-08T00:41:05;20.50;96.90
16893;DHT22;8563;52.242;9.098;2023-09-08T00:43:38;20.40;97.00
16893;DHT22;8563;52.242;9.098;2023-09-08T00:46:10;20.40;97.10
16893;DHT22;8563;52.242;9.098;2023-09-08T00:48:44;20.40;97.20
16893;DHT22;8563;52.242;9.098;2023-09-08T00:51:16;20.30;97.30
16893;DHT22;8563;52.242;9.098;2023-09-08T00:53:49;20.30;97.40
16893;DHT22;8563;52.242;9.098;2023-09-08T00:56:23;20.30;97.60
16893;DHT22;8563;52.242;9.098;2023-09-08T00:58:55;20.20;97.80
16893;DHT22;8563;52.242;9.098;2023-09-08T01:01:28;20.20;98.00
16893;DHT22;8563;52.242;9.098;2023-09-08T01:04:00;20.10;98.10
16893;DHT22;8563;52.242;9.098;2023-09-08T01:06:33;20.10;98.30
16893;DHT22;8563;52.242;9.098;2023-09-08T01:09:05;20.00;98.40
16893;DHT22;8563;52.242;9.098;2023-09-08T01:11:39;20.00;98.50
16893;DHT22;8563;52.242;9.098;2023-09-08T01:14:12;20.00;98.70
16893;DHT22;8563;52.242;9.098;2023-09-08T01:16:44;19.90;98.60
16893;DHT22;8563;52.242;9.098;2023-09-08T01:19:17;19.90;98.70
16893;DHT22;8563;52.242;9.098;2023-09-08T01:25:08;19.80;98.80
16893;DHT22;8563;52.242;9.098;2023-09-08T01:27:45;19.80;98.80
16893;DHT22;8563;52.242;9.098;2023-09-08T01:30:18;19.80;98.90
16893;DHT22;8563;52.242;9.098;2023-09-08T01:32:52;19.80;98.90
16893;DHT22;8563;52.242;9.098;2023-09-08T01:35:25;19.80;98.80
16893;DHT22;8563;52.242;9.098;2023-09-08T01:37:58;19.80;98.90
16893;DHT22;8563;52.242;9.098;2023-09-08T01:40:32;19.80;98.80
16893;DHT22;8563;52.242;9.098;2023-09-08T01:43:05;19.80;98.90
16893;DHT22;8563;52.242;9.098;2023-09-08T01:45:37;19.80;99.00
16893;DHT22;8563;52.242;9.098;2023-09-08T01:48:09;19.80;98.80
16893;DHT22;8563;52.242;9.098;2023-09-08T01:50:41;19.80;98.90
16893;DHT22;8563;52.242;9.098;2023-09-08T01:53:14;19.80;99.00
16893;DHT22;8563;52.242;9.098;2023-09-08T01:55:47;19.80;99.00
16893;DHT22;8563;52.242;9.098;2023-09-08T01:58:19;19.80;99.10
16893;DHT22;8563;52.242;9.098;2023-09-08T02:00:52;19.80;99.10
16893;DHT22;8563;52.242;9.098;2023-09-08T02:03:24;19.70;99.20
16893;DHT22;8563;52.242;9.098;2023-09-08T02:05:57;19.70;99.30
16893;DHT22;8563;52.242;9.098;2023-09-08T02:08:29;19.70;99.40
16893;DHT22;8563;52.242;9.098;2023-09-08T02:11:04;19.70;99.50
16893;DHT22;8563;52.242;9.098;2023-09-08T02:13:36;19.70;99.60
16893;DHT22;8563;52.242;9.098;2023-09-08T02:16:13;19.60;99.60
16893;DHT22;8563;52.242;9.098;2023-09-08T02:18:45;19.60;99.70
16893;DHT22;8563;52.242;9.098;2023-09-08T02:21:18;19.50;99.90
16893;DHT22;8563;52.242;9.098;2023-09-08T02:23:50;19.50;99.90
16893;DHT22;8563;52.242;9.098;2023-09-08T02:26:23;19.50;99.90
16893;DHT22;8563;52.242;9.098;2023-09-08T02:28:57;19.50;99.90
16893;DHT22;8563;52.242;9.098;2023-09-08T02:31:29;19.40;99.90
16893;DHT22;8563;52.242;9.098;2023-09-08T02:34:02;19.40;99.90
16893;DHT22;8563;52.242;9.098;2023-09-08T02:36:35;19.30;99.90
16893;DHT22;8563;52.242;9.098;2023-09-08T02:39:08;19.30;99.90
16893;DHT22;8563;52.242;9.098;2023-09-08T02:41:43;19.30;99.90
16893;DHT22;8563;52.242;9.098;2023-09-08T02:44:15;19.30;99.90
16893;DHT22;8563;52.242;9.098;2023-09-08T02:46:48;19.30;99.90
16893;DHT22;8563;52.242;9.098;2023-09-08T02:49:20;19.30;99.90
16893;DHT22;8563;52.242;9.098;2023-09-08T02:51:52;19.30;99.90
16893;DHT22;8563;52.242;9.098;2023-09-08T02:54:24;19.30;99.90
16893;DHT22;8563;52.242;9.098;2023-09-08T02:56:58;19.30;99.90
16893;DHT22;8563;52.242;9.098;2023-09-08T02:59:30;19.20;99.90
16893;DHT22;8563;52.242;9.098;2023-09-08T03:02:03;19.10;99.90
16893;DHT22;8563;52.242;9.098;2023-09-08T03:04:35;19.00;99.90
16893;DHT22;8563;52.242;9.098;2023-09-08T03:07:07;19.00;99.90
16893;DHT22;8563;52.242;9.098;2023-09-08T03:09:40;19.00;99.90
16893;DHT22;8563;52.242;9.098;2023-09-08T03:12:13;19.00;99.90
16893;DHT22;8563;52.242;9.098;2023-09-08T03:14:45;18.90;99.90
16893;DHT22;8563;52.242;9.098;2023-09-08T03:17:18;18.90;99.90
16893;DHT22;8563;52.242;9.098;2023-09-08T03:19:51;18.90;99.90
16893;DHT22;8563;52.242;9.098;2023-09-08T03:22:23;18.90;99.90
16893;DHT22;8563;52.242;9.098;2023-09-08T03:24:55;18.90;99.90
16893;DHT22;8563;52.242;9.098;2023-09-08T03:27:29;18.90;99.90
16893;DHT22;8563;52.242;9.098;2023-09-08T03:30:01;18.90;99.90
16893;DHT22;8563;52.242;9.098;2023-09-08T03:32:35;18.90;99.90
16893;DHT22;8563;52.242;9.098;2023-09-08T03:35:08;18.90;99.90
16893;DHT22;8563;52.242;9.098;2023-09-08T03:37:41;18.80;99.90
16893;DHT22;8563;52.242;9.098;2023-09-08T03:40:13;18.80;99.90
16893;DHT22;8563;52.242;9.098;2023-09-08T03:42:47;18.80;99.90
16893;DHT22;8563;52.242;9.098;2023-09-08T03:45:19;18.70;99.90
16893;DHT22;8563;52.242;9.098;2023-09-08T03:47:51;18.70;99.90
16893;DHT22;8563;52.242;9.098;2023-09-08T03:50:24;18.70;99.90
16893;DHT22;8563;52.242;9.098;2023-09-08T03:52:56;18.70;99.90
16893;DHT22;8563;52.242;9.098;2023-09-08T03:55:28;18.70;99.90
16893;DHT22;8563;52.242;9.098;2023-09-08T03:58:02;18.70;99.90
16893;DHT22;8563;52.242;9.098;2023-09-08T04:00:34;18.70;99.90
16893;DHT22;8563;52.242;9.098;2023-09-08T04:03:07;18.70;99.90
16893;DHT22;8563;52.242;9.098;2023-09-08T04:05:40;18.60;99.90
16893;DHT22;8563;52.242;9.098;2023-09-08T04:08:12;18.60;99.90
16893;DHT22;8563;52.242;9.098;2023-09-08T04:10:44;18.60;99.90
16893;DHT22;8563;52.242;9.098;2023-09-08T04:13:18;18.60;99.90
16893;DHT22;8563;52.242;9.098;2023-09-08T04:15:50;18.50;99.90
16893;DHT22;8563;52.242;9.098;2023-09-08T04:18:23;18.50;99.90
16893;DHT22;8563;52.242;9.098;2023-09-08T04:20:55;18.50;99.90
16893;DHT22;8563;52.242;9.098;2023-09-08T04:23:27;18.40;99.90
16893;DHT22;8563;52.242;9.098;2023-09-08T04:25:59;18.40;99.90
16893;DHT22;8563;52.242;9.098;2023-09-08T04:28:33;18.40;99.90
16893;DHT22;8563;52.242;9.098;2023-09-08T04:31:05;18.40;99.90
16893;DHT22;8563;52.242;9.098;2023-09-08T04:33:38;18.40;99.90
16893;DHT22;8563;52.242;9.098;2023-09-08T04:36:10;18.40;99.90
16893;DHT22;8563;52.242;9.098;2023-09-08T04:38:43;18.30;99.90
16893;DHT22;8563;52.242;9.098;2023-09-08T04:41:16;18.30;99.90
16893;DHT22;8563;52.242;9.098;2023-09-08T04:43:49;18.30;99.90
16893;DHT22;8563;52.242;9.098;2023-09-08T04:46:22;18.30;99.90
16893;DHT22;8563;52.242;9.098;2023-09-08T04:48:54;18.30;99.90
16893;DHT22;8563;52.242;9.098;2023-09-08T04:51:27;18.30;99.90
16893;DHT22;8563;52.242;9.098;2023-09-08T04:53:59;18.40;99.90
16893;DHT22;8563;52.242;9.098;2023-09-08T04:56:32;18.40;99.90
16893;DHT22;8563;52.242;9.098;2023-09-08T04:59:05;18.40;99.90
16893;DHT22;8563;52.242;9.098;2023-09-08T05:01:37;18.40;99.90
16893;DHT22;8563;52.242;9.098;2023-09-08T05:04:12;18.40;99.90
16893;DHT22;8563;52.242;9.098;2023-09-08T05:06:44;18.50;99.90
16893;DHT22;8563;52.242;9.098;2023-09-08T05:09:17;18.50;99.90
16893;DHT22;8563;52.242;9.098;2023-09-08T05:11:49;18.40;99.90
16893;DHT22;8563;52.242;9.098;2023-09-08T05:14:23;18.50;99.90
16893;DHT22;8563;52.242;9.098;2023-09-08T05:16:56;18.50;99.90
16893;DHT22;8563;52.242;9.098;2023-09-08T05:19:32;18.50;99.90
16893;DHT22;8563;52.242;9.098;2023-09-08T05:22:05;18.60;99.90
16893;DHT22;8563;52.242;9.098;2023-09-08T05:24:38;18.60;99.90
16893;DHT22;8563;52.242;9.098;2023-09-08T05:27:10;18.70;99.90
16893;DHT22;8563;52.242;9.098;2023-09-08T05:29:44;18.80;99.90
16893;DHT22;8563;52.242;9.098;2023-09-08T05:32:17;18.80;99.90
16893;DHT22;8563;52.242;9.098;2023-09-08T05:34:49;18.80;99.90
16893;DHT22;8563;52.242;9.098;2023-09-08T05:37:22;18.90;99.90
16893;DHT22;8563;52.242;9.098;2023-09-08T05:39:54;19.00;99.90
16893;DHT22;8563;52.242;9.098;2023-09-08T05:42:26;19.00;99.90
16893;DHT22;8563;52.242;9.098;2023-09-08T05:45:01;19.10;99.90
16893;DHT22;8563;52.242;9.098;2023-09-08T05:47:33;19.20;99.90
16893;DHT22;8563;52.242;9.098;2023-09-08T05:50:07;19.20;99.90
16893;DHT22;8563;52.242;9.098;2023-09-08T05:52:39;19.30;99.90
16893;DHT22;8563;52.242;9.098;2023-09-08T05:55:12;19.40;99.90
16893;DHT22;8563;52.242;9.098;2023-09-08T05:57:44;19.50;99.90
16893;DHT22;8563;52.242;9.098;2023-09-08T06:00:18;19.60;99.90
16893;DHT22;8563;52.242;9.098;2023-09-08T06:02:54;19.90;99.90
16893;DHT22;8563;52.242;9.098;2023-09-08T06:05:26;20.40;99.90
16893;DHT22;8563;52.242;9.098;2023-09-08T06:07:59;21.10;99.60
16893;DHT22;8563;52.242;9.098;2023-09-08T06:10:31;21.60;98.90
16893;DHT22;8563;52.242;9.098;2023-09-08T06:13:04;22.00;98.10
16893;DHT22;8563;52.242;9.098;2023-09-08T06:15:38;22.30;97.70
16893;DHT22;8563;52.242;9.098;2023-09-08T06:18:11;22.40;97.30
16893;DHT22;8563;52.242;9.098;2023-09-08T06:20:45;22.40;97.10
16893;DHT22;8563;52.242;9.098;2023-09-08T06:23:19;22.50;96.90
16893;DHT22;8563;52.242;9.098;2023-09-08T06:25:56;22.50;96.50
16893;DHT22;8563;52.242;9.098;2023-09-08T06:28:31;22.60;96.70
16893;DHT22;8563;52.242;9.098;2023-09-08T06:31:05;22.60;96.30
16893;DHT22;8563;52.242;9.098;2023-09-08T06:33:37;22.70;96.30
16893;DHT22;8563;52.242;9.098;2023-09-08T06:36:10;22.70;96.70
16893;DHT22;8563;52.242;9.098;2023-09-08T06:38:42;22.80;96.40
16893;DHT22;8563;52.242;9.098;2023-09-08T06:41:15;22.90;96.80
16893;DHT22;8563;52.242;9.098;2023-09-08T06:43:48;22.80;96.40
16893;DHT22;8563;52.242;9.098;2023-09-08T06:46:27;22.90;96.90
16893;DHT22;8563;52.242;9.098;2023-09-08T06:48:59;22.70;97.00
16893;DHT22;8563;52.242;9.098;2023-09-08T06:51:31;22.70;96.90
16893;DHT22;8563;52.242;9.098;2023-09-08T06:54:04;22.70;96.90
16893;DHT22;8563;52.242;9.098;2023-09-08T06:56:42;22.60;96.80
16893;DHT22;8563;52.242;9.098;2023-09-08T06:59:14;22.60;97.00
16893;DHT22;8563;52.242;9.098;2023-09-08T07:01:49;22.60;97.30
16893;DHT22;8563;52.242;9.098;2023-09-08T07:04:21;22.60;96.80
16893;DHT22;8563;52.242;9.098;2023-09-08T07:06:54;22.50;96.90
16893;DHT22;8563;52.242;9.098;2023-09-08T07:09:26;22.50;96.90
16893;DHT22;8563;52.242;9.098;2023-09-08T07:11:59;22.50;96.90
16893;DHT22;8563;52.242;9.098;2023-09-08T07:14:32;22.50;96.90
16893;DHT22;8563;52.242;9.098;2023-09-08T07:17:06;22.50;96.50
16893;DHT22;8563;52.242;9.098;2023-09-08T07:19:39;22.50;96.40
16893;DHT22;8563;52.242;9.098;2023-09-08T07:22:11;22.50;96.20
16893;DHT22;8563;52.242;9.098;2023-09-08T07:24:43;22.50;96.10
16893;DHT22;8563;52.242;9.098;2023-09-08T07:27:16;22.60;96.00
16893;DHT22;8563;52.242;9.098;2023-09-08T07:29:49;22.60;96.20
16893;DHT22;8563;52.242;9.098;2023-09-08T07:32:23;22.70;96.20
16893;DHT22;8563;52.242;9.098;2023-09-08T07:34:55;22.70;95.80
16893;DHT22;8563;52.242;9.098;2023-09-08T07:37:28;22.70;96.50
16893;DHT22;8563;52.242;9.098;2023-09-08T07:40:01;22.70;96.30
16893;DHT22;8563;52.242;9.098;2023-09-08T07:42:34;22.70;95.50
16893;DHT22;8563;52.242;9.098;2023-09-08T07:45:07;22.80;95.30
16893;DHT22;8563;52.242;9.098;2023-09-08T07:47:41;22.80;95.80
16893;DHT22;8563;52.242;9.098;2023-09-08T07:50:19;22.80;95.40
16893;DHT22;8563;52.242;9.098;2023-09-08T07:52:53;22.90;95.60
16893;DHT22;8563;52.242;9.098;2023-09-08T07:55:26;22.90;95.50
16893;DHT22;8563;52.242;9.098;2023-09-08T07:58:01;23.00;95.80
16893;DHT22;8563;52.242;9.098;2023-09-08T08:00:34;23.00;95.60
16893;DHT22;8563;52.242;9.098;2023-09-08T08:03:08;23.10;95.80
16893;DHT22;8563;52.242;9.098;2023-09-08T08:05:40;23.10;95.10
16893;DHT22;8563;52.242;9.098;2023-09-08T08:08:12;23.20;95.70
16893;DHT22;8563;52.242;9.098;2023-09-08T08:10:44;23.20;95.80
16893;DHT22;8563;52.242;9.098;2023-09-08T08:13:16;23.30;95.60
16893;DHT22;8563;52.242;9.098;2023-09-08T08:15:49;23.40;94.70
16893;DHT22;8563;52.242;9.098;2023-09-08T08:18:22;23.40;95.30
16893;DHT22;8563;52.242;9.098;2023-09-08T08:20:54;23.50;95.00
16893;DHT22;8563;52.242;9.098;2023-09-08T08:23:27;23.60;95.00
16893;DHT22;8563;52.242;9.098;2023-09-08T08:25:59;23.70;94.60
16893;DHT22;8563;52.242;9.098;2023-09-08T08:28:31;23.70;94.60
16893;DHT22;8563;52.242;9.098;2023-09-08T08:31:03;23.80;94.40
16893;DHT22;8563;52.242;9.098;2023-09-08T08:33:37;23.80;94.00
16893;DHT22;8563;52.242;9.098;2023-09-08T08:36:09;23.90;94.10
16893;DHT22;8563;52.242;9.098;2023-09-08T08:38:41;24.00;94.70
16893;DHT22;8563;52.242;9.098;2023-09-08T08:41:13;24.10;94.20
16893;DHT22;8563;52.242;9.098;2023-09-08T08:43:46;24.10;93.60
16893;DHT22;8563;52.242;9.098;2023-09-08T08:46:21;24.20;94.20
16893;DHT22;8563;52.242;9.098;2023-09-08T08:48:55;24.30;93.50
16893;DHT22;8563;52.242;9.098;2023-09-08T08:51:28;24.30;94.10
16893;DHT22;8563;52.242;9.098;2023-09-08T08:54:02;24.40;93.70
16893;DHT22;8563;52.242;9.098;2023-09-08T08:56:36;24.50;93.70
16893;DHT22;8563;52.242;9.098;2023-09-08T08:59:09;24.50;93.40
16893;DHT22;8563;52.242;9.098;2023-09-08T09:01:42;24.50;93.30
16893;DHT22;8563;52.242;9.098;2023-09-08T09:04:16;24.50;93.50
16893;DHT22;8563;52.242;9.098;2023-09-08T09:06:49;24.60;93.60
16893;DHT22;8563;52.242;9.098;2023-09-08T09:09:23;24.70;93.50
16893;DHT22;8563;52.242;9.098;2023-09-08T09:11:55;24.80;93.60
16893;DHT22;8563;52.242;9.098;2023-09-08T09:14:27;24.80;93.10
16893;DHT22;8563;52.242;9.098;2023-09-08T09:16:59;24.80;92.90
16893;DHT22;8563;52.242;9.098;2023-09-08T09:19:34;24.90;93.00
16893;DHT22;8563;52.242;9.098;2023-09-08T09:22:08;25.00;93.20
16893;DHT22;8563;52.242;9.098;2023-09-08T09:24:41;25.10;93.70
16893;DHT22;8563;52.242;9.098;2023-09-08T09:27:14;25.20;93.10
16893;DHT22;8563;52.242;9.098;2023-09-08T09:29:47;25.20;92.90
16893;DHT22;8563;52.242;9.098;2023-09-08T09:32:23;25.20;92.90
16893;DHT22;8563;52.242;9.098;2023-09-08T09:34:57;25.20;93.10
16893;DHT22;8563;52.242;9.098;2023-09-08T09:37:31;25.30;92.40
16893;DHT22;8563;52.242;9.098;2023-09-08T09:40:04;25.40;93.00
16893;DHT22;8563;52.242;9.098;2023-09-08T09:42:38;25.40;93.30
16893;DHT22;8563;52.242;9.098;2023-09-08T09:45:11;25.40;93.10
16893;DHT22;8563;52.242;9.098;2023-09-08T09:47:44;25.50;93.30
16893;DHT22;8563;52.242;9.098;2023-09-08T09:50:27;25.50;92.90
16893;DHT22;8563;52.242;9.098;2023-09-08T09:53:00;25.50;92.30
16893;DHT22;8563;52.242;9.098;2023-09-08T09:55:33;25.50;92.90
16893;DHT22;8563;52.242;9.098;2023-09-08T09:58:09;25.60;92.80
16893;DHT22;8563;52.242;9.098;2023-09-08T10:00:42;25.60;93.10
16893;DHT22;8563;52.242;9.098;2023-09-08T10:03:18;25.70;92.70
16893;DHT22;8563;52.242;9.098;2023-09-08T10:05:53;25.80;92.80
16893;DHT22;8563;52.242;9.098;2023-09-08T10:08:26;25.80;93.00
16893;DHT22;8563;52.242;9.098;2023-09-08T10:11:01;25.80;92.40
16893;DHT22;8563;52.242;9.098;2023-09-08T10:13:39;25.90;92.30
16893;DHT22;8563;52.242;9.098;2023-09-08T10:16:16;25.90;92.70
16893;DHT22;8563;52.242;9.098;2023-09-08T10:18:52;25.90;92.40
16893;DHT22;8563;52.242;9.098;2023-09-08T10:21:26;25.90;92.40
16893;DHT22;8563;52.242;9.098;2023-09-08T10:24:06;26.00;91.80
16893;DHT22;8563;52.242;9.098;2023-09-08T10:26:46;26.00;92.30
16893;DHT22;8563;52.242;9.098;2023-09-08T10:29:19;26.10;92.40
16893;DHT22;8563;52.242;9.098;2023-09-08T10:31:51;26.20;91.50
16893;DHT22;8563;52.242;9.098;2023-09-08T10:34:24;26.20;91.90
16893;DHT22;8563;52.242;9.098;2023-09-08T10:36:59;26.20;91.20
16893;DHT22;8563;52.242;9.098;2023-09-08T10:39:32;26.20;91.70
16893;DHT22;8563;52.242;9.098;2023-09-08T10:42:23;26.20;91.80
16893;DHT22;8563;52.242;9.098;2023-09-08T10:45:01;26.30;91.70
16893;DHT22;8563;52.242;9.098;2023-09-08T10:47:53;26.30;91.70
16893;DHT22;8563;52.242;9.098;2023-09-08T10:50:30;26.30;91.40
16893;DHT22;8563;52.242;9.098;2023-09-08T10:53:17;26.30;91.50
16893;DHT22;8563;52.242;9.098;2023-09-08T10:55:50;26.40;92.00
16893;DHT22;8563;52.242;9.098;2023-09-08T10:58:30;26.50;91.20
16893;DHT22;8563;52.242;9.098;2023-09-08T11:01:05;26.50;91.80
16893;DHT22;8563;52.242;9.098;2023-09-08T11:03:45;26.50;91.50
16893;DHT22;8563;52.242;9.098;2023-09-08T11:06:19;26.50;91.30
16893;DHT22;8563;52.242;9.098;2023-09-08T11:08:54;26.60;91.10
16893;DHT22;8563;52.242;9.098;2023-09-08T11:11:27;26.60;91.20
16893;DHT22;8563;52.242;9.098;2023-09-08T11:13:59;26.60;91.00
16893;DHT22;8563;52.242;9.098;2023-09-08T11:16:31;26.60;91.10
16893;DHT22;8563;52.242;9.098;2023-09-08T11:19:04;26.60;90.50
16893;DHT22;8563;52.242;9.098;2023-09-08T11:21:36;26.60;90.00
16893;DHT22;8563;52.242;9.098;2023-09-08T11:24:10;26.70;90.90
16893;DHT22;8563;52.242;9.098;2023-09-08T11:26:45;26.70;90.60
16893;DHT22;8563;52.242;9.098;2023-09-08T11:29:21;26.70;90.80
16893;DHT22;8563;52.242;9.098;2023-09-08T11:31:53;26.80;91.60
16893;DHT22;8563;52.242;9.098;2023-09-08T11:34:26;26.90;90.60
16893;DHT22;8563;52.242;9.098;2023-09-08T11:36:58;27.00;90.20
16893;DHT22;8563;52.242;9.098;2023-09-08T11:39:36;27.00;89.30
16893;DHT22;8563;52.242;9.098;2023-09-08T11:42:10;27.10;89.90
16893;DHT22;8563;52.242;9.098;2023-09-08T11:44:43;27.10;89.30
16893;DHT22;8563;52.242;9.098;2023-09-08T11:47:15;27.10;89.40
16893;DHT22;8563;52.242;9.098;2023-09-08T11:49:46;27.10;88.80
16893;DHT22;8563;52.242;9.098;2023-09-08T11:52:22;27.20;88.90
16893;DHT22;8563;52.242;9.098;2023-09-08T11:54:55;27.10;88.00
16893;DHT22;8563;52.242;9.098;2023-09-08T11:57:29;27.20;90.00
16893;DHT22;8563;52.242;9.098;2023-09-08T12:00:03;27.30;89.50
16893;DHT22;8563;52.242;9.098;2023-09-08T12:02:36;27.40;87.60
16893;DHT22;8563;52.242;9.098;2023-09-08T12:05:11;27.40;89.30
16893;DHT22;8563;52.242;9.098;2023-09-08T12:07:44;27.40;86.80
16893;DHT22;8563;52.242;9.098;2023-09-08T12:10:18;27.50;86.50
16893;DHT22;8563;52.242;9.098;2023-09-08T12:12:51;27.50;87.20
16893;DHT22;8563;52.242;9.098;2023-09-08T12:15:32;27.50;85.70
16893;DHT22;8563;52.242;9.098;2023-09-08T12:18:06;27.60;87.40
16893;DHT22;8563;52.242;9.098;2023-09-08T12:20:39;27.60;85.90
16893;DHT22;8563;52.242;9.098;2023-09-08T12:23:19;27.60;85.80
16893;DHT22;8563;52.242;9.098;2023-09-08T12:25:53;27.60;83.70
16893;DHT22;8563;52.242;9.098;2023-09-08T12:28:30;27.70;85.90
16893;DHT22;8563;52.242;9.098;2023-09-08T12:31:02;27.70;85.30
16893;DHT22;8563;52.242;9.098;2023-09-08T12:33:35;27.80;84.40
16893;DHT22;8563;52.242;9.098;2023-09-08T12:36:10;27.80;86.00
16893;DHT22;8563;52.242;9.098;2023-09-08T12:38:47;27.80;83.90
16893;DHT22;8563;52.242;9.098;2023-09-08T12:41:21;27.70;83.40
16893;DHT22;8563;52.242;9.098;2023-09-08T12:43:53;27.80;83.30
16893;DHT22;8563;52.242;9.098;2023-09-08T12:46:25;27.80;82.80
16893;DHT22;8563;52.242;9.098;2023-09-08T12:48:57;27.70;82.70
16893;DHT22;8563;52.242;9.098;2023-09-08T12:51:30;27.80;83.00
16893;DHT22;8563;52.242;9.098;2023-09-08T12:54:02;27.80;81.20
16893;DHT22;8563;52.242;9.098;2023-09-08T12:56:36;27.80;82.20
16893;DHT22;8563;52.242;9.098;2023-09-08T12:59:08;27.80;81.60
16893;DHT22;8563;52.242;9.098;2023-09-08T13:01:40;27.90;81.70
16893;DHT22;8563;52.242;9.098;2023-09-08T13:04:12;27.90;81.30
16893;DHT22;8563;52.242;9.098;2023-09-08T13:06:44;27.90;81.80
16893;DHT22;8563;52.242;9.098;2023-09-08T13:09:17;27.90;81.50
16893;DHT22;8563;52.242;9.098;2023-09-08T13:11:50;28.00;81.30
16893;DHT22;8563;52.242;9.098;2023-09-08T13:14:23;28.00;81.60
16893;DHT22;8563;52.242;9.098;2023-09-08T13:16:55;28.00;82.50
16893;DHT22;8563;52.242;9.098;2023-09-08T13:19:27;28.10;82.00
16893;DHT22;8563;52.242;9.098;2023-09-08T13:22:00;28.10;79.30
16893;DHT22;8563;52.242;9.098;2023-09-08T13:24:32;28.10;79.10
16893;DHT22;8563;52.242;9.098;2023-09-08T13:27:07;28.00;79.20
16893;DHT22;8563;52.242;9.098;2023-09-08T13:29:39;27.90;79.20
16893;DHT22;8563;52.242;9.098;2023-09-08T13:32:11;28.00;81.00
16893;DHT22;8563;52.242;9.098;2023-09-08T13:34:43;28.10;80.60
16893;DHT22;8563;52.242;9.098;2023-09-08T13:37:15;28.10;80.20
16893;DHT22;8563;52.242;9.098;2023-09-08T13:39:47;28.10;79.70
16893;DHT22;8563;52.242;9.098;2023-09-08T13:42:21;28.00;81.50
16893;DHT22;8563;52.242;9.098;2023-09-08T13:44:55;28.00;80.20
16893;DHT22;8563;52.242;9.098;2023-09-08T13:47:27;28.00;79.00
16893;DHT22;8563;52.242;9.098;2023-09-08T13:49:59;28.00;78.90
16893;DHT22;8563;52.242;9.098;2023-09-08T13:52:31;28.00;80.60
16893;DHT22;8563;52.242;9.098;2023-09-08T13:55:04;28.00;81.00
16893;DHT22;8563;52.242;9.098;2023-09-08T13:57:38;28.00;81.20
16893;DHT22;8563;52.242;9.098;2023-09-08T14:00:11;28.00;80.80
16893;DHT22;8563;52.242;9.098;2023-09-08T14:02:43;28.00;81.20
16893;DHT22;8563;52.242;9.098;2023-09-08T14:05:15;28.00;80.40
16893;DHT22;8563;52.242;9.098;2023-09-08T14:07:48;27.90;82.00
16893;DHT22;8563;52.242;9.098;2023-09-08T14:10:20;27.90;81.00
16893;DHT22;8563;52.242;9.098;2023-09-08T14:12:54;27.90;82.10
16893;DHT22;8563;52.242;9.098;2023-09-08T14:15:26;28.00;81.40
16893;DHT22;8563;52.242;9.098;2023-09-08T14:17:58;28.00;81.10
16893;DHT22;8563;52.242;9.098;2023-09-08T14:20:30;28.00;80.30
16893;DHT22;8563;52.242;9.098;2023-09-08T14:23:03;28.00;79.80
16893;DHT22;8563;52.242;9.098;2023-09-08T14:25:35;28.00;81.10
16893;DHT22;8563;52.242;9.098;2023-09-08T14:28:09;28.00;80.30
16893;DHT22;8563;52.242;9.098;2023-09-08T14:30:41;28.00;82.10
16893;DHT22;8563;52.242;9.098;2023-09-08T14:33:13;27.90;81.00
16893;DHT22;8563;52.242;9.098;2023-09-08T14:35:45;28.00;79.60
16893;DHT22;8563;52.242;9.098;2023-09-08T14:38:22;27.90;80.10
16893;DHT22;8563;52.242;9.098;2023-09-08T14:40:55;27.90;81.50
16893;DHT22;8563;52.242;9.098;2023-09-08T14:43:30;28.00;79.60
16893;DHT22;8563;52.242;9.098;2023-09-08T14:46:02;27.90;80.80
16893;DHT22;8563;52.242;9.098;2023-09-08T14:48:34;27.90;80.60
16893;DHT22;8563;52.242;9.098;2023-09-08T14:51:07;27.80;79.80
16893;DHT22;8563;52.242;9.098;2023-09-08T14:53:39;27.80;80.60
16893;DHT22;8563;52.242;9.098;2023-09-08T14:56:11;27.90;80.30
16893;DHT22;8563;52.242;9.098;2023-09-08T14:58:45;27.80;79.70
16893;DHT22;8563;52.242;9.098;2023-09-08T15:01:17;27.80;79.30
16893;DHT22;8563;52.242;9.098;2023-09-08T15:03:50;27.80;79.10
16893;DHT22;8563;52.242;9.098;2023-09-08T15:06:22;27.80;79.20
16893;DHT22;8563;52.242;9.098;2023-09-08T15:08:54;27.80;79.00
16893;DHT22;8563;52.242;9.098;2023-09-08T15:11:27;27.80;80.10
16893;DHT22;8563;52.242;9.098;2023-09-08T15:14:00;27.80;79.10
16893;DHT22;8563;52.242;9.098;2023-09-08T15:16:32;27.70;81.20
16893;DHT22;8563;52.242;9.098;2023-09-08T15:19:05;27.70;79.20
16893;DHT22;8563;52.242;9.098;2023-09-08T15:21:37;27.70;81.20
16893;DHT22;8563;52.242;9.098;2023-09-08T15:24:09;27.60;80.20
16893;DHT22;8563;52.242;9.098;2023-09-08T15:26:41;27.70;80.60
16893;DHT22;8563;52.242;9.098;2023-09-08T15:29:17;27.60;79.50
16893;DHT22;8563;52.242;9.098;2023-09-08T15:31:50;27.60;80.30
16893;DHT22;8563;52.242;9.098;2023-09-08T15:34:23;27.50;80.30
16893;DHT22;8563;52.242;9.098;2023-09-08T15:36:55;27.40;80.60
16893;DHT22;8563;52.242;9.098;2023-09-08T15:39:27;27.40;79.90
16893;DHT22;8563;52.242;9.098;2023-09-08T15:41:59;27.40;80.10
16893;DHT22;8563;52.242;9.098;2023-09-08T15:44:33;27.40;79.90
16893;DHT22;8563;52.242;9.098;2023-09-08T15:47:05;27.40;80.20
16893;DHT22;8563;52.242;9.098;2023-09-08T15:49:37;27.30;81.10
16893;DHT22;8563;52.242;9.098;2023-09-08T15:52:09;27.20;81.90
16893;DHT22;8563;52.242;9.098;2023-09-08T15:54:41;27.20;82.20
16893;DHT22;8563;52.242;9.098;2023-09-08T15:57:13;27.20;80.00
16893;DHT22;8563;52.242;9.098;2023-09-08T15:59:47;27.20;79.70
16893;DHT22;8563;52.242;9.098;2023-09-08T16:02:19;27.20;79.90
16893;DHT22;8563;52.242;9.098;2023-09-08T16:04:51;27.20;79.90
16893;DHT22;8563;52.242;9.098;2023-09-08T16:07:27;27.20;80.30
16893;DHT22;8563;52.242;9.098;2023-09-08T16:09:59;27.10;80.40
16893;DHT22;8563;52.242;9.098;2023-09-08T16:12:31;27.10;80.40
16893;DHT22;8563;52.242;9.098;2023-09-08T16:15:05;27.10;80.90
16893;DHT22;8563;52.242;9.098;2023-09-08T16:17:38;27.00;81.80
16893;DHT22;8563;52.242;9.098;2023-09-08T16:20:10;27.00;82.10
16893;DHT22;8563;52.242;9.098;2023-09-08T16:22:42;26.90;83.10
16893;DHT22;8563;52.242;9.098;2023-09-08T16:25:15;26.80;83.80